sensor_id;sensor_type;location;lat;lon;timestamp;pressure;altitude;pressure_sealevel;temperature;humidity
39793;BME280;26080;42.264;24.536;2022-07-21T00:01:23;99393.75;;;18.52;100.00
39793;BME280;26080;42.264;24.536;2022-07-21T00:03:48;99396.88;;;18.57;100.00
39793;BME280;26080;42.264;24.536;2022-07-21T00:06:14;99392.91;;;18.51;100.00
39793;BME280;26080;42.264;24.536;2022-07-21T00:08:39;99389.41;;;18.40;100.00
39793;BME280;26080;42.264;24.536;2022-07-21T00:11:05;99376.75;;;18.32;100.00
39793;BME280;26080;42.264;24.536;2022-07-21T00:13:30;99390.50;;;18.37;100.00
39793;BME280;26080;42.264;24.536;2022-07-21T00:15:56;99368.78;;;18.21;100.00
39793;BME280;26080;42.264;24.536;2022-07-21T00:18:23;99390.97;;;18.31;100.00
39793;BME280;26080;42.264;24.536;2022-07-21T00:20:49;99384.56;;;18.33;100.00
39793;BME280;26080;42.264;24.536;2022-07-21T00:23:15;99383.72;;;18.33;100.00
39793;BME280;26080;42.264;24.536;2022-07-21T00:25:40;99385.28;;;18.35;100.00
39793;BME280;26080;42.264;24.536;2022-07-21T00:28:06;99374.81;;;18.34;100.00
39793;BME280;26080;42.264;24.536;2022-07-21T00:30:32;99370.25;;;18.25;100.00
39793;BME280;26080;42.264;24.536;2022-07-21T00:32:58;99370.34;;;18.12;100.00
39793;BME280;26080;42.264;24.536;2022-07-21T00:35:23;99342.97;;;17.89;100.00
39793;BME280;26080;42.264;24.536;2022-07-21T00:37:49;99348.13;;;17.91;100.00
39793;BME280;26080;42.264;24.536;2022-07-21T00:40:14;99360.09;;;18.19;100.00
39793;BME280;26080;42.264;24.536;2022-07-21T00:42:43;99341.75;;;17.93;100.00
39793;BME280;26080;42.264;24.536;2022-07-21T00:45:10;99356.81;;;17.93;100.00
39793;BME280;26080;42.264;24.536;2022-07-21T00:47:36;99359.94;;;17.87;100.00
39793;BME280;26080;42.264;24.536;2022-07-21T00:50:12;99353.03;;;17.73;100.00
39793;BME280;26080;42.264;24.536;2022-07-21T00:52:38;99360.38;;;17.81;100.00
39793;BME280;26080;42.264;24.536;2022-07-21T00:55:05;99347.06;;;17.82;100.00
39793;BME280;26080;42.264;24.536;2022-07-21T00:57:31;99375.22;;;17.83;100.00
39793;BME280;26080;42.264;24.536;2022-07-21T00:59:56;99379.09;;;17.66;100.00
39793;BME280;26080;42.264;24.536;2022-07-21T01:02:22;99382.34;;;17.59;100.00
39793;BME280;26080;42.264;24.536;2022-07-21T01:04:48;99357.31;;;17.28;100.00
39793;BME280;26080;42.264;24.536;2022-07-21T01:07:14;99359.47;;;17.10;100.00
39793;BME280;26080;42.264;24.536;2022-07-21T01:09:41;99369.09;;;16.87;100.00
39793;BME280;26080;42.264;24.536;2022-07-21T01:12:07;99361.25;;;16.85;100.00
39793;BME280;26080;42.264;24.536;2022-07-21T01:14:33;99341.75;;;16.63;100.00
39793;BME280;26080;42.264;24.536;2022-07-21T01:17:01;99363.53;;;16.53;100.00
39793;BME280;26080;42.264;24.536;2022-07-21T01:19:26;99367.03;;;16.54;100.00
39793;BME280;26080;42.264;24.536;2022-07-21T01:21:52;99356.56;;;16.40;100.00
39793;BME280;26080;42.264;24.536;2022-07-21T01:24:17;99370.19;;;16.59;100.00
39793;BME280;26080;42.264;24.536;2022-07-21T01:26:48;99360.88;;;16.66;100.00
39793;BME280;26080;42.264;24.536;2022-07-21T01:29:15;99367.72;;;16.81;100.00
39793;BME280;26080;42.264;24.536;2022-07-21T01:31:42;99349.25;;;16.69;100.00
39793;BME280;26080;42.264;24.536;2022-07-21T01:34:08;99361.09;;;16.76;100.00
39793;BME280;26080;42.264;24.536;2022-07-21T01:36:34;99364.03;;;16.71;100.00
39793;BME280;26080;42.264;24.536;2022-07-21T01:39:00;99354.47;;;16.45;100.00
39793;BME280;26080;42.264;24.536;2022-07-21T01:41:44;99353.94;;;16.40;100.00
39793;BME280;26080;42.264;24.536;2022-07-21T01:44:12;99362.91;;;16.50;100.00
39793;BME280;26080;42.264;24.536;2022-07-21T01:46:40;99362.31;;;16.34;100.00
39793;BME280;26080;42.264;24.536;2022-07-21T01:49:06;99364.94;;;16.21;100.00
39793;BME280;26080;42.264;24.536;2022-07-21T01:51:32;99360.81;;;16.17;100.00
39793;BME280;26080;42.264;24.536;2022-07-21T01:53:58;99338.31;;;16.24;100.00
39793;BME280;26080;42.264;24.536;2022-07-21T01:56:25;99357.84;;;16.47;100.00
39793;BME280;26080;42.264;24.536;2022-07-21T01:58:54;99337.47;;;16.23;100.00
39793;BME280;26080;42.264;24.536;2022-07-21T02:01:21;99357.13;;;16.19;100.00
39793;BME280;26080;42.264;24.536;2022-07-21T02:03:48;99342.66;;;15.99;100.00
39793;BME280;26080;42.264;24.536;2022-07-21T02:06:14;99355.13;;;15.97;100.00
39793;BME280;26080;42.264;24.536;2022-07-21T02:08:40;99353.09;;;16.01;100.00
39793;BME280;26080;42.264;24.536;2022-07-21T02:11:08;99350.16;;;15.93;100.00
39793;BME280;26080;42.264;24.536;2022-07-21T02:13:34;99359.44;;;15.98;100.00
39793;BME280;26080;42.264;24.536;2022-07-21T02:15:59;99363.88;;;16.11;100.00
39793;BME280;26080;42.264;24.536;2022-07-21T02:18:25;99357.25;;;16.18;100.00
39793;BME280;26080;42.264;24.536;2022-07-21T02:20:50;99353.53;;;16.46;100.00
39793;BME280;26080;42.264;24.536;2022-07-21T02:23:17;99355.72;;;16.52;100.00
39793;BME280;26080;42.264;24.536;2022-07-21T02:25:42;99348.94;;;16.61;100.00
39793;BME280;26080;42.264;24.536;2022-07-21T02:28:08;99328.78;;;16.47;100.00
39793;BME280;26080;42.264;24.536;2022-07-21T02:30:34;99345.25;;;16.50;100.00
39793;BME280;26080;42.264;24.536;2022-07-21T02:32:59;99343.34;;;16.52;100.00
39793;BME280;26080;42.264;24.536;2022-07-21T02:35:25;99347.78;;;16.52;100.00
39793;BME280;26080;42.264;24.536;2022-07-21T02:37:50;99351.59;;;16.48;100.00
39793;BME280;26080;42.264;24.536;2022-07-21T02:40:16;99342.72;;;16.49;100.00
39793;BME280;26080;42.264;24.536;2022-07-21T02:42:41;99347.78;;;16.52;100.00
39793;BME280;26080;42.264;24.536;2022-07-21T02:48:33;99352.25;;;16.39;100.00
39793;BME280;26080;42.264;24.536;2022-07-21T02:50:58;99344.22;;;16.27;100.00
39793;BME280;26080;42.264;24.536;2022-07-21T02:53:23;99339.25;;;16.23;100.00
39793;BME280;26080;42.264;24.536;2022-07-21T02:55:51;99339.88;;;16.26;100.00
39793;BME280;26080;42.264;24.536;2022-07-21T02:58:21;99342.63;;;16.25;100.00
39793;BME280;26080;42.264;24.536;2022-07-21T03:00:56;99353.31;;;16.23;100.00
39793;BME280;26080;42.264;24.536;2022-07-21T03:03:24;99349.41;;;16.16;100.00
39793;BME280;26080;42.264;24.536;2022-07-21T03:05:50;99351.97;;;16.18;100.00
39793;BME280;26080;42.264;24.536;2022-07-21T03:08:16;99356.59;;;16.27;100.00
39793;BME280;26080;42.264;24.536;2022-07-21T03:10:42;99348.78;;;16.25;100.00
39793;BME280;26080;42.264;24.536;2022-07-21T03:13:08;99315.94;;;16.04;100.00
39793;BME280;26080;42.264;24.536;2022-07-21T03:15:34;99350.34;;;16.28;100.00
39793;BME280;26080;42.264;24.536;2022-07-21T03:18:00;99344.00;;;16.30;100.00
39793;BME280;26080;42.264;24.536;2022-07-21T03:20:27;99338.72;;;16.30;100.00
39793;BME280;26080;42.264;24.536;2022-07-21T03:22:53;99353.19;;;16.38;100.00
39793;BME280;26080;42.264;24.536;2022-07-21T03:25:19;99339.88;;;16.39;100.00
39793;BME280;26080;42.264;24.536;2022-07-21T03:27:45;99345.03;;;16.41;100.00
39793;BME280;26080;42.264;24.536;2022-07-21T03:30:12;99325.81;;;16.39;100.00
39793;BME280;26080;42.264;24.536;2022-07-21T03:32:38;99350.19;;;16.55;100.00
39793;BME280;26080;42.264;24.536;2022-07-21T03:35:05;99347.75;;;16.65;100.00
39793;BME280;26080;42.264;24.536;2022-07-21T03:37:32;99321.13;;;16.55;100.00
39793;BME280;26080;42.264;24.536;2022-07-21T03:39:57;99323.66;;;16.69;100.00
39793;BME280;26080;42.264;24.536;2022-07-21T03:42:23;99344.50;;;16.98;100.00
39793;BME280;26080;42.264;24.536;2022-07-21T03:44:48;99351.38;;;17.24;100.00
39793;BME280;26080;42.264;24.536;2022-07-21T03:47:14;99349.44;;;17.26;100.00
39793;BME280;26080;42.264;24.536;2022-07-21T03:49:39;99322.38;;;17.23;100.00
39793;BME280;26080;42.264;24.536;2022-07-21T03:52:05;99341.06;;;17.67;100.00
39793;BME280;26080;42.264;24.536;2022-07-21T03:54:30;99351.41;;;18.61;100.00
39793;BME280;26080;42.264;24.536;2022-07-21T03:56:56;99340.97;;;19.78;100.00
39793;BME280;26080;42.264;24.536;2022-07-21T03:59:21;99336.56;;;20.90;98.07
39793;BME280;26080;42.264;24.536;2022-07-21T04:01:47;99345.16;;;21.90;92.12
39793;BME280;26080;42.264;24.536;2022-07-21T04:04:12;99345.41;;;22.81;86.01
39793;BME280;26080;42.264;24.536;2022-07-21T04:06:38;99343.53;;;23.36;79.05
39793;BME280;26080;42.264;24.536;2022-07-21T04:09:03;99341.19;;;23.94;78.55
39793;BME280;26080;42.264;24.536;2022-07-21T04:11:29;99347.81;;;24.68;74.28
39793;BME280;26080;42.264;24.536;2022-07-21T04:13:58;99346.34;;;25.32;70.41
39793;BME280;26080;42.264;24.536;2022-07-21T04:16:24;99321.03;;;25.59;68.70
39793;BME280;26080;42.264;24.536;2022-07-21T04:18:49;99335.09;;;26.18;65.17
39793;BME280;26080;42.264;24.536;2022-07-21T04:21:15;99344.84;;;26.75;62.89
39793;BME280;26080;42.264;24.536;2022-07-21T04:23:40;99346.25;;;26.94;60.90
39793;BME280;26080;42.264;24.536;2022-07-21T04:26:06;99333.59;;;27.33;59.86
39793;BME280;26080;42.264;24.536;2022-07-21T04:28:31;99339.97;;;28.16;57.16
39793;BME280;26080;42.264;24.536;2022-07-21T04:30:57;99335.47;;;28.46;53.26
39793;BME280;26080;42.264;24.536;2022-07-21T04:33:22;99339.44;;;28.94;52.42
39793;BME280;26080;42.264;24.536;2022-07-21T04:35:48;99335.91;;;29.51;50.64
39793;BME280;26080;42.264;24.536;2022-07-21T04:38:13;99322.59;;;29.99;49.00
39793;BME280;26080;42.264;24.536;2022-07-21T04:40:39;99336.56;;;30.30;47.53
39793;BME280;26080;42.264;24.536;2022-07-21T04:43:05;99333.34;;;30.89;44.65
39793;BME280;26080;42.264;24.536;2022-07-21T04:45:30;99328.91;;;31.36;41.62
39793;BME280;26080;42.264;24.536;2022-07-21T04:47:56;99329.59;;;31.78;41.03
39793;BME280;26080;42.264;24.536;2022-07-21T04:50:24;99322.88;;;32.07;40.51
39793;BME280;26080;42.264;24.536;2022-07-21T04:52:49;99328.47;;;32.52;39.28
39793;BME280;26080;42.264;24.536;2022-07-21T04:55:16;99315.56;;;32.21;39.89
39793;BME280;26080;42.264;24.536;2022-07-21T04:57:44;99324.44;;;32.67;38.13
39793;BME280;26080;42.264;24.536;2022-07-21T05:00:13;99328.38;;;32.71;37.73
39793;BME280;26080;42.264;24.536;2022-07-21T05:02:39;99330.19;;;32.06;39.64
39793;BME280;26080;42.264;24.536;2022-07-21T05:05:06;99334.97;;;32.31;39.11
39793;BME280;26080;42.264;24.536;2022-07-21T05:07:32;99334.75;;;31.73;39.31
39793;BME280;26080;42.264;24.536;2022-07-21T05:09:58;99340.28;;;30.29;41.39
39793;BME280;26080;42.264;24.536;2022-07-21T05:12:25;99346.31;;;29.54;43.70
39793;BME280;26080;42.264;24.536;2022-07-21T05:14:50;99336.84;;;29.43;47.14
39793;BME280;26080;42.264;24.536;2022-07-21T05:17:16;99343.72;;;29.89;47.47
39793;BME280;26080;42.264;24.536;2022-07-21T05:19:41;99336.91;;;29.71;48.53
39793;BME280;26080;42.264;24.536;2022-07-21T05:22:08;99340.97;;;29.03;50.97
39793;BME280;26080;42.264;24.536;2022-07-21T05:24:34;99326.91;;;28.57;53.17
39793;BME280;26080;42.264;24.536;2022-07-21T05:26:59;99336.22;;;27.87;56.23
39793;BME280;26080;42.264;24.536;2022-07-21T05:29:25;99342.78;;;27.39;57.42
39793;BME280;26080;42.264;24.536;2022-07-21T05:31:50;99350.06;;;27.07;58.92
39793;BME280;26080;42.264;24.536;2022-07-21T05:34:16;99345.41;;;26.62;63.61
39793;BME280;26080;42.264;24.536;2022-07-21T05:36:41;99348.94;;;26.94;64.08
39793;BME280;26080;42.264;24.536;2022-07-21T05:39:07;99349.78;;;26.94;63.91
39793;BME280;26080;42.264;24.536;2022-07-21T05:41:32;99345.94;;;26.89;63.48
39793;BME280;26080;42.264;24.536;2022-07-21T05:43:57;99349.56;;;26.65;62.32
39793;BME280;26080;42.264;24.536;2022-07-21T05:46:23;99333.56;;;26.32;61.73
39793;BME280;26080;42.264;24.536;2022-07-21T05:48:48;99333.13;;;25.96;62.99
39793;BME280;26080;42.264;24.536;2022-07-21T05:51:14;99327.06;;;26.02;65.39
39793;BME280;26080;42.264;24.536;2022-07-21T05:53:39;99328.09;;;25.93;66.89
39793;BME280;26080;42.264;24.536;2022-07-21T05:56:05;99317.88;;;25.64;67.91
39793;BME280;26080;42.264;24.536;2022-07-21T05:58:33;99336.47;;;25.65;65.61
39793;BME280;26080;42.264;24.536;2022-07-21T06:00:59;99331.44;;;25.62;66.15
39793;BME280;26080;42.264;24.536;2022-07-21T06:03:37;99328.75;;;25.46;64.96
39793;BME280;26080;42.264;24.536;2022-07-21T06:06:04;99326.09;;;25.54;68.05
39793;BME280;26080;42.264;24.536;2022-07-21T06:08:29;99306.81;;;25.51;66.17
39793;BME280;26080;42.264;24.536;2022-07-21T06:10:55;99319.72;;;25.63;66.20
39793;BME280;26080;42.264;24.536;2022-07-21T06:13:21;99318.84;;;25.63;65.15
39793;BME280;26080;42.264;24.536;2022-07-21T06:15:46;99325.41;;;25.52;66.61
39793;BME280;26080;42.264;24.536;2022-07-21T06:18:12;99320.38;;;25.49;65.41
39793;BME280;26080;42.264;24.536;2022-07-21T06:20:37;99309.16;;;25.46;64.40
39793;BME280;26080;42.264;24.536;2022-07-21T06:23:03;99316.19;;;25.47;66.05
39793;BME280;26080;42.264;24.536;2022-07-21T06:25:28;99312.66;;;25.46;64.99
39793;BME280;26080;42.264;24.536;2022-07-21T06:27:54;99296.09;;;25.43;65.10
39793;BME280;26080;42.264;24.536;2022-07-21T06:30:19;99290.06;;;25.57;65.45
39793;BME280;26080;42.264;24.536;2022-07-21T06:32:45;99300.97;;;25.72;63.79
39793;BME280;26080;42.264;24.536;2022-07-21T06:35:10;99299.13;;;25.80;63.07
39793;BME280;26080;42.264;24.536;2022-07-21T06:37:36;99299.44;;;25.93;64.58
39793;BME280;26080;42.264;24.536;2022-07-21T06:40:02;99281.13;;;25.97;65.85
39793;BME280;26080;42.264;24.536;2022-07-21T06:42:28;99304.88;;;26.24;65.18
39793;BME280;26080;42.264;24.536;2022-07-21T06:44:54;99292.44;;;26.40;63.89
39793;BME280;26080;42.264;24.536;2022-07-21T06:47:19;99292.19;;;26.57;61.49
39793;BME280;26080;42.264;24.536;2022-07-21T06:49:45;99295.84;;;26.65;62.18
39793;BME280;26080;42.264;24.536;2022-07-21T06:52:10;99297.66;;;26.72;63.29
39793;BME280;26080;42.264;24.536;2022-07-21T06:54:36;99286.50;;;26.83;61.52
39793;BME280;26080;42.264;24.536;2022-07-21T06:57:01;99279.94;;;26.86;60.89
39793;BME280;26080;42.264;24.536;2022-07-21T06:59:27;99269.19;;;26.86;60.52
39793;BME280;26080;42.264;24.536;2022-07-21T07:01:52;99272.38;;;26.90;60.47
39793;BME280;26080;42.264;24.536;2022-07-21T07:04:18;99278.03;;;27.03;62.90
39793;BME280;26080;42.264;24.536;2022-07-21T07:06:43;99271.56;;;27.12;58.96
39793;BME280;26080;42.264;24.536;2022-07-21T07:09:08;99267.94;;;27.28;61.62
39793;BME280;26080;42.264;24.536;2022-07-21T07:11:34;99257.06;;;27.44;59.37
39793;BME280;26080;42.264;24.536;2022-07-21T07:14:00;99255.34;;;27.66;59.59
39793;BME280;26080;42.264;24.536;2022-07-21T07:16:25;99255.47;;;27.72;59.09
39793;BME280;26080;42.264;24.536;2022-07-21T07:18:51;99253.44;;;27.89;58.43
39793;BME280;26080;42.264;24.536;2022-07-21T07:21:16;99247.69;;;27.92;57.97
39793;BME280;26080;42.264;24.536;2022-07-21T07:23:42;99255.94;;;28.06;57.83
39793;BME280;26080;42.264;24.536;2022-07-21T07:26:08;99237.47;;;28.17;59.04
39793;BME280;26080;42.264;24.536;2022-07-21T07:28:39;99250.38;;;28.37;56.13
39793;BME280;26080;42.264;24.536;2022-07-21T07:31:08;99246.47;;;28.54;56.21
39793;BME280;26080;42.264;24.536;2022-07-21T07:33:33;99243.47;;;28.63;49.42
39793;BME280;26080;42.264;24.536;2022-07-21T07:35:59;99215.13;;;28.68;51.06
39793;BME280;26080;42.264;24.536;2022-07-21T07:38:24;99235.59;;;28.83;52.82
39793;BME280;26080;42.264;24.536;2022-07-21T07:40:50;99236.09;;;28.87;49.81
39793;BME280;26080;42.264;24.536;2022-07-21T07:43:15;99231.47;;;29.02;51.19
39793;BME280;26080;42.264;24.536;2022-07-21T07:45:41;99230.94;;;29.13;53.78
39793;BME280;26080;42.264;24.536;2022-07-21T07:48:06;99237.91;;;29.23;53.68
39793;BME280;26080;42.264;24.536;2022-07-21T07:50:32;99225.03;;;29.25;51.28
39793;BME280;26080;42.264;24.536;2022-07-21T07:52:57;99227.84;;;29.38;55.10
39793;BME280;26080;42.264;24.536;2022-07-21T07:55:23;99220.94;;;29.50;53.19
39793;BME280;26080;42.264;24.536;2022-07-21T07:57:49;99225.69;;;29.48;51.32
39793;BME280;26080;42.264;24.536;2022-07-21T08:00:16;99212.47;;;29.60;50.71
39793;BME280;26080;42.264;24.536;2022-07-21T08:02:42;99213.84;;;29.77;49.87
39793;BME280;26080;42.264;24.536;2022-07-21T08:05:08;99215.09;;;29.74;50.27
39793;BME280;26080;42.264;24.536;2022-07-21T08:07:38;99217.78;;;29.74;47.82
39793;BME280;26080;42.264;24.536;2022-07-21T08:10:06;99212.00;;;29.77;47.69
39793;BME280;26080;42.264;24.536;2022-07-21T08:12:32;99213.88;;;29.84;45.51
39793;BME280;26080;42.264;24.536;2022-07-21T08:14:58;99211.19;;;29.84;49.42
39793;BME280;26080;42.264;24.536;2022-07-21T08:17:23;99201.16;;;30.05;45.24
39793;BME280;26080;42.264;24.536;2022-07-21T08:19:49;99203.25;;;30.10;46.67
39793;BME280;26080;42.264;24.536;2022-07-21T08:22:14;99195.59;;;30.14;46.94
39793;BME280;26080;42.264;24.536;2022-07-21T08:24:40;99187.47;;;30.14;46.68
39793;BME280;26080;42.264;24.536;2022-07-21T08:27:05;99183.38;;;30.24;44.73
39793;BME280;26080;42.264;24.536;2022-07-21T08:29:31;99194.03;;;30.32;47.16
39793;BME280;26080;42.264;24.536;2022-07-21T08:31:56;99185.72;;;30.41;45.14
39793;BME280;26080;42.264;24.536;2022-07-21T08:34:22;99180.41;;;30.67;44.46
39793;BME280;26080;42.264;24.536;2022-07-21T08:36:47;99176.72;;;30.75;45.69
39793;BME280;26080;42.264;24.536;2022-07-21T08:39:13;99149.25;;;30.71;44.88
39793;BME280;26080;42.264;24.536;2022-07-21T08:41:39;99173.81;;;31.03;46.52
39793;BME280;26080;42.264;24.536;2022-07-21T08:44:05;99163.00;;;31.09;44.60
39793;BME280;26080;42.264;24.536;2022-07-21T08:46:33;99164.28;;;31.27;46.90
39793;BME280;26080;42.264;24.536;2022-07-21T08:49:02;99160.31;;;31.29;44.22
39793;BME280;26080;42.264;24.536;2022-07-21T08:51:32;99161.38;;;31.28;44.02
39793;BME280;26080;42.264;24.536;2022-07-21T08:53:58;99153.03;;;31.30;42.46
39793;BME280;26080;42.264;24.536;2022-07-21T08:56:23;99154.06;;;31.42;39.03
39793;BME280;26080;42.264;24.536;2022-07-21T08:58:49;99150.72;;;31.46;38.21
39793;BME280;26080;42.264;24.536;2022-07-21T09:01:14;99153.00;;;31.49;37.81
39793;BME280;26080;42.264;24.536;2022-07-21T09:03:40;99142.16;;;31.63;39.97
39793;BME280;26080;42.264;24.536;2022-07-21T09:06:13;99150.06;;;31.71;39.04
39793;BME280;26080;42.264;24.536;2022-07-21T09:08:44;99133.41;;;31.74;40.79
39793;BME280;26080;42.264;24.536;2022-07-21T09:13:46;99143.09;;;32.01;38.45
39793;BME280;26080;42.264;24.536;2022-07-21T09:16:32;99133.47;;;32.12;37.97
39793;BME280;26080;42.264;24.536;2022-07-21T09:18:58;99135.09;;;32.20;36.50
39793;BME280;26080;42.264;24.536;2022-07-21T09:21:23;99116.94;;;32.27;33.73
39793;BME280;26080;42.264;24.536;2022-07-21T09:23:49;99092.81;;;32.19;29.94
39793;BME280;26080;42.264;24.536;2022-07-21T09:26:14;99126.84;;;32.46;31.78
39793;BME280;26080;42.264;24.536;2022-07-21T09:28:41;99129.47;;;32.59;30.83
39793;BME280;26080;42.264;24.536;2022-07-21T09:31:10;99124.25;;;32.64;31.55
39793;BME280;26080;42.264;24.536;2022-07-21T09:36:17;99125.00;;;32.78;31.45
39793;BME280;26080;42.264;24.536;2022-07-21T09:41:12;99125.75;;;32.92;27.83
39793;BME280;26080;42.264;24.536;2022-07-21T09:43:46;99127.06;;;32.83;29.47
39793;BME280;26080;42.264;24.536;2022-07-21T09:48:48;99108.91;;;32.83;29.26
39793;BME280;26080;42.264;24.536;2022-07-21T09:51:35;99124.09;;;32.91;29.70
39793;BME280;26080;42.264;24.536;2022-07-21T09:54:08;99129.72;;;33.14;30.27
39793;BME280;26080;42.264;24.536;2022-07-21T09:56:43;99120.81;;;33.07;29.28
39793;BME280;26080;42.264;24.536;2022-07-21T09:59:10;99120.97;;;33.12;30.58
39793;BME280;26080;42.264;24.536;2022-07-21T10:01:36;99126.22;;;33.32;28.26
39793;BME280;26080;42.264;24.536;2022-07-21T10:04:04;99116.19;;;33.33;32.23
39793;BME280;26080;42.264;24.536;2022-07-21T10:06:32;99108.72;;;33.28;33.20
39793;BME280;26080;42.264;24.536;2022-07-21T10:09:00;99107.78;;;33.16;29.60
39793;BME280;26080;42.264;24.536;2022-07-21T10:11:27;99091.09;;;32.94;30.67
39793;BME280;26080;42.264;24.536;2022-07-21T10:13:52;99105.25;;;32.96;29.78
39793;BME280;26080;42.264;24.536;2022-07-21T10:16:18;99105.72;;;32.93;30.41
39793;BME280;26080;42.264;24.536;2022-07-21T10:19:10;99102.22;;;33.11;30.86
39793;BME280;26080;42.264;24.536;2022-07-21T10:24:04;99099.50;;;33.36;29.58
39793;BME280;26080;42.264;24.536;2022-07-21T10:26:30;99056.06;;;33.54;29.20
39793;BME280;26080;42.264;24.536;2022-07-21T10:28:56;99097.97;;;33.58;29.69
39793;BME280;26080;42.264;24.536;2022-07-21T10:31:24;99092.25;;;33.66;30.19
39793;BME280;26080;42.264;24.536;2022-07-21T10:41:48;99092.56;;;33.95;27.48
39793;BME280;26080;42.264;24.536;2022-07-21T10:47:07;99094.09;;;33.72;30.02
39793;BME280;26080;42.264;24.536;2022-07-21T10:55:23;99072.88;;;33.63;27.95
39793;BME280;26080;42.264;24.536;2022-07-21T10:58:11;99075.94;;;33.84;26.71
39793;BME280;26080;42.264;24.536;2022-07-21T11:00:38;99060.50;;;33.67;28.85
39793;BME280;26080;42.264;24.536;2022-07-21T11:03:13;99071.47;;;33.60;29.36
39793;BME280;26080;42.264;24.536;2022-07-21T11:08:46;99078.69;;;33.48;30.72
39793;BME280;26080;42.264;24.536;2022-07-21T11:19:26;99056.06;;;33.72;27.69
39793;BME280;26080;42.264;24.536;2022-07-21T11:21:51;99075.22;;;33.77;28.65
39793;BME280;26080;42.264;24.536;2022-07-21T11:24:24;99067.78;;;33.84;27.14
39793;BME280;26080;42.264;24.536;2022-07-21T11:27:01;99059.06;;;33.82;30.05
39793;BME280;26080;42.264;24.536;2022-07-21T11:29:28;99070.25;;;33.93;29.46
39793;BME280;26080;42.264;24.536;2022-07-21T11:31:55;99062.38;;;33.84;30.18
39793;BME280;26080;42.264;24.536;2022-07-21T11:34:22;99054.06;;;33.98;28.88
39793;BME280;26080;42.264;24.536;2022-07-21T11:36:48;99070.19;;;34.11;31.43
39793;BME280;26080;42.264;24.536;2022-07-21T11:39:23;99058.84;;;34.02;28.60
39793;BME280;26080;42.264;24.536;2022-07-21T11:41:49;99057.03;;;33.96;31.35
39793;BME280;26080;42.264;24.536;2022-07-21T11:44:25;99042.38;;;33.97;29.85
39793;BME280;26080;42.264;24.536;2022-07-21T11:49:17;99042.66;;;34.07;30.16
39793;BME280;26080;42.264;24.536;2022-07-21T11:51:57;99020.75;;;33.91;30.17
39793;BME280;26080;42.264;24.536;2022-07-21T11:56:51;99042.38;;;34.27;29.09
39793;BME280;26080;42.264;24.536;2022-07-21T11:59:17;99048.00;;;34.44;28.95
39793;BME280;26080;42.264;24.536;2022-07-21T12:01:56;99034.34;;;34.32;30.13
39793;BME280;26080;42.264;24.536;2022-07-21T12:07:22;99040.72;;;34.56;32.12
39793;BME280;26080;42.264;24.536;2022-07-21T12:09:54;99040.00;;;34.61;30.05
39793;BME280;26080;42.264;24.536;2022-07-21T12:12:27;99033.63;;;34.55;29.17
39793;BME280;26080;42.264;24.536;2022-07-21T12:14:53;99040.41;;;34.04;30.35
39793;BME280;26080;42.264;24.536;2022-07-21T12:17:37;99027.06;;;33.84;31.44
39793;BME280;26080;42.264;24.536;2022-07-21T12:20:05;99038.16;;;34.01;32.48
39793;BME280;26080;42.264;24.536;2022-07-21T12:22:41;99029.66;;;34.09;31.81
39793;BME280;26080;42.264;24.536;2022-07-21T12:25:11;99030.06;;;34.13;32.71
39793;BME280;26080;42.264;24.536;2022-07-21T12:27:38;99019.31;;;34.18;34.18
39793;BME280;26080;42.264;24.536;2022-07-21T12:30:07;99021.69;;;34.26;30.62
39793;BME280;26080;42.264;24.536;2022-07-21T12:32:47;99016.47;;;34.25;30.85
39793;BME280;26080;42.264;24.536;2022-07-21T12:35:26;99015.75;;;34.17;30.67
39793;BME280;26080;42.264;24.536;2022-07-21T12:38:07;99014.47;;;34.20;31.41
39793;BME280;26080;42.264;24.536;2022-07-21T12:40:35;99015.66;;;34.24;30.98
39793;BME280;26080;42.264;24.536;2022-07-21T12:43:08;99012.06;;;34.12;30.89
39793;BME280;26080;42.264;24.536;2022-07-21T12:48:45;99002.50;;;34.09;30.60
39793;BME280;26080;42.264;24.536;2022-07-21T12:53:42;98997.97;;;34.33;32.01
39793;BME280;26080;42.264;24.536;2022-07-21T12:56:09;98997.28;;;34.38;31.94
39793;BME280;26080;42.264;24.536;2022-07-21T12:58:36;99001.34;;;34.59;30.93
39793;BME280;26080;42.264;24.536;2022-07-21T13:01:03;98998.50;;;34.77;30.51
39793;BME280;26080;42.264;24.536;2022-07-21T13:03:29;98988.09;;;34.74;30.30
39793;BME280;26080;42.264;24.536;2022-07-21T13:05:55;98992.97;;;34.84;28.50
39793;BME280;26080;42.264;24.536;2022-07-21T13:08:20;98983.72;;;34.85;30.26
39793;BME280;26080;42.264;24.536;2022-07-21T13:10:46;98983.13;;;34.94;28.64
39793;BME280;26080;42.264;24.536;2022-07-21T13:13:11;98975.34;;;34.86;29.35
39793;BME280;26080;42.264;24.536;2022-07-21T13:15:37;98968.47;;;34.84;30.69
39793;BME280;26080;42.264;24.536;2022-07-21T13:18:02;98979.13;;;34.85;29.58
39793;BME280;26080;42.264;24.536;2022-07-21T13:20:28;98970.22;;;34.78;28.41
39793;BME280;26080;42.264;24.536;2022-07-21T13:22:54;98968.81;;;34.75;30.85
39793;BME280;26080;42.264;24.536;2022-07-21T13:25:19;98980.63;;;34.81;30.69
39793;BME280;26080;42.264;24.536;2022-07-21T13:27:44;98968.34;;;34.79;28.35
39793;BME280;26080;42.264;24.536;2022-07-21T13:30:10;98967.28;;;34.80;29.62
39793;BME280;26080;42.264;24.536;2022-07-21T13:32:36;98966.34;;;34.74;28.74
39793;BME280;26080;42.264;24.536;2022-07-21T13:35:03;98945.25;;;34.34;29.78
39793;BME280;26080;42.264;24.536;2022-07-21T13:37:28;98970.03;;;34.26;30.44
39793;BME280;26080;42.264;24.536;2022-07-21T13:39:54;98971.53;;;34.40;29.77
39793;BME280;26080;42.264;24.536;2022-07-21T13:42:19;98957.50;;;34.25;30.79
39793;BME280;26080;42.264;24.536;2022-07-21T13:44:45;98967.47;;;34.31;31.75